AirNav   Everest Fuels
 
 1030 users online  

16IL Harold Bunger Airport
Kirkland, Illinois, USA

GOING TO KIRKLAND?


FAA INFORMATION EFFECTIVE 01 DECEMBER 2022

Location

FAA Identifier: 16IL
Lat/Long: 42-02-59.3900N 088-50-06.1000W
42-02.989833N 088-50.101667W
42.0498306,-88.8350278
(estimated)
Elevation: 896 ft. / 273 m (estimated)
Variation: 00W (1985)
From city: 3 miles S of KIRKLAND, IL
Time zone: UTC -6 (UTC -5 during Daylight Saving Time)
Zip code: 60146

Airport Operations

Airport use: Private use. Permission required prior to landing
Activation date: 03/1967
Control tower: no
ARTCC: CHICAGO CENTER
FSS: KANKAKEE FLIGHT SERVICE STATION
Attendance: UNATNDD
Wind indicator: yes
Segmented circle: no
Lights: OWNER'S USE ONLY.

Airport Communications

WX AWOS-3 at DKB (9 nm SE): 119.075 (815-748-2350)
WX AWOS-3 at RPJ (14 nm SW): 125.2 (815-562-2955)
WX ASOS at RFD (15 nm NW): PHONE 815-484-6229

Nearby radio navigation aids

VOR radial/distance  VOR name  Freq  Var
DPAr292/23.7DUPAGE VOR/DME108.4002E
PLLr078/31.1POLO VOR/DME111.2003E
JVLr156/32.8JANESVILLE VOR/DME114.3003E
JOTr321/38.0JOLIET VOR/DME112.3002E

Airport Services

Airframe service: NONE
Powerplant service: NONE

Runway Information

Runway E/W

Dimensions: 2000 x 120 ft. / 610 x 37 m
Surface: turf
Runway edge lights: low intensity
RUNWAY E  RUNWAY W
Traffic pattern: leftleft

Airport Ownership and Management from official FAA records

Ownership: Privately-owned
Owner: GLENN BUNGER
4133 RT 72
KIRKLAND, IL 60146
Phone (815) 739-6546
Manager: GLENN BUNGER
4133 RT 72
KIRKLAND, IL 60146
Phone (815) 739-6546

Airport Operational Statistics

Aircraft based on the field: 3
Single engine airplanes: 3
    

Additional Remarks

FOR CD CTC CHICAGO ARTCC AT 630-906-8921.

Instrument Procedures

There are no published instrument procedures at 16IL.

Some nearby airports with instrument procedures:

KDKB - De Kalb Taylor Municipal Airport (9 nm SE)
KRPJ - Rochelle Municipal Airport/Koritz Field (14 nm SW)
KRFD - Chicago/Rockford International Airport (15 nm NW)
C77 - Poplar Grove Airport (16 nm N)
KARR - Aurora Municipal Airport (23 nm SE)
 
Loc | Ops | Rwys | IFR | FBO | Links
Com | Nav | Svcs | Stats | Notes
Area around 16IL (Harold Bunger Airport)
 
Road maps at: MapQuest Bing Google
 
Aerial photo
No photo
 
Sectional chart

 
Airport distance calculator
Flying to Harold Bunger Airport? Find the distance to fly.

From to 16IL

Sunrise and sunset
Times for 04-Dec-2022
 Local
(UTC-6)
 Zulu
(UTC)
Morning civil twilight06:3712:37
Sunrise07:0813:08
Sunset16:2322:23
Evening civil twilight16:5422:54

Current date and time
Zulu (UTC)  05-Dec-2022 02:38:57
Local (UTC-6)  04-Dec-2022 20:38:57
 
METAR
KDKB 
9nm SE 
050215Z AUTO 20009KT 10SM CLR M03/M07 A3001 RMK AO2 T10321072
KRPJ 
14nm SW 
050215Z AUTO 19010KT 10SM CLR M03/M07 A3000 RMK AO2 T10321072 TSNO
KRFD 
15nm NW 
050154Z 15005KT 10SM CLR M02/M09 A3001 RMK AO2 SLP173 T10221089 $
TAF
KRFD 
15nm NW 
042055Z 0421/0518 22009KT P6SM FEW250 FM050200 21008KT P6SM SCT250 WS010/24035KT FM051200 20011G17KT P6SM BKN100
NOTAMs
Click for the latest NOTAMs
NOTAMs are issued by the DoD/FAA and will open in a separate window not controlled by AirNav.

 

 
 

Would you like to see your business listed on this page?

 If your business provides an interesting product or service to pilots, flight crews, aircraft, or users of the Harold Bunger Airport, you should consider listing it here.  To start the listing process, click on the button below
 
Add a business
 

Other Pages about Harold Bunger Airport

Update a link
 
Copyright © AirNav, LLC. All rights reserved. Privacy Policy  Contact